Terminal Aerodrome Forecast
Issued by NWS

Home | Current Version | Previous Version | Graphics & Text | Print | Product List | Glossary On
Versions: 1 2 3 4 5 6 7 8 9 10 11 12 13 14
000
FTUS43 KOAX 181122
TAFCDR
TAF
KCDR 181122Z 1812/1912 26005KT P6SM SCT250
     FM181500 VRB05KT P6SM FEW250
     FM182000 19007KT P6SM SKC
     FM190200 21011KT P6SM SCT250=

USA.gov is the U.S. government's official web portal to all federal, state and local government web resources and services.